Time;durP1;ratioP1;P1;durP2;ratioP2;P2;SDS_P1;SDS_P2;PMS_P1;PMS_P2;Temp;Humidity;BMP_temperature;BMP_pressure;BME280_temperature;BME280_humidity;BME280_pressure;Samples;Min_cycle;Max_cycle;Signal;HPM_P1;HPM_P2
2023/09/30 00:00:47;;;;;;;23.00;17.80;;;;;;;13.65;93.40;100887.83;88555;273;137310;-73
2023/09/30 00:02:49;;;;;;;18.20;16.10;;;;;;;13.57;93.44;100874.77;88698;276;22620;-72
2023/09/30 00:04:52;;;;;;;20.80;17.30;;;;;;;13.65;93.57;100884.45;88501;280;138864;-73
2023/09/30 00:06:54;;;;;;;20.00;16.50;;;;;;;13.64;93.65;100885.66;88729;272;22529;-72
2023/09/30 00:08:56;;;;;;;20.10;16.30;;;;;;;13.64;93.87;100883.20;88511;273;137261;-72
2023/09/30 00:10:58;;;;;;;19.00;16.20;;;;;;;13.64;94.07;100884.73;88543;280;24013;-73
2023/09/30 00:12:59;;;;;;;20.20;18.10;;;;;;;13.64;93.94;100882.59;88544;280;137306;-74
2023/09/30 00:15:01;;;;;;;18.90;16.70;;;;;;;13.61;94.04;100882.07;88007;281;796973;-76
2023/09/30 00:17:03;;;;;;;20.30;16.40;;;;;;;13.56;94.24;100883.74;88767;277;138159;-75
2023/09/30 00:19:05;;;;;;;18.50;15.70;;;;;;;13.51;94.64;100877.88;88587;273;22599;-73
2023/09/30 00:21:07;;;;;;;19.10;16.20;;;;;;;13.46;94.92;100880.59;88546;273;137510;-73
2023/09/30 00:23:09;;;;;;;24.60;18.00;;;;;;;13.41;95.36;100876.85;88577;274;22538;-72
2023/09/30 00:25:11;;;;;;;19.30;16.20;;;;;;;13.40;95.73;100877.84;88507;280;138608;-74
2023/09/30 00:27:13;;;;;;;22.40;17.10;;;;;;;13.38;96.12;100874.92;88548;273;23749;-73
2023/09/30 00:29:15;;;;;;;24.20;18.50;;;;;;;13.37;96.00;100872.48;88442;273;137363;-73
2023/09/30 00:31:17;;;;;;;17.40;15.60;;;;;;;13.35;96.27;100871.48;88610;273;24049;-74
2023/09/30 00:33:20;;;;;;;19.10;16.80;;;;;;;13.26;96.47;100866.46;88475;280;138925;-74
2023/09/30 00:35:22;;;;;;;20.10;16.00;;;;;;;13.29;96.69;100874.98;88606;272;22538;-73
2023/09/30 00:37:24;;;;;;;18.80;16.80;;;;;;;13.28;96.81;100872.70;88534;273;137268;-72
2023/09/30 00:39:29;;;;;;;20.90;17.10;;;;;;;13.25;97.02;100871.61;88569;281;24027;-75
2023/09/30 00:41:32;;;;;;;18.60;16.00;;;;;;;13.22;97.22;100873.89;88547;274;137515;-73
2023/09/30 00:43:34;;;;;;;21.00;16.80;;;;;;;13.19;97.45;100870.78;88546;277;22579;-71
2023/09/30 00:45:38;;;;;;;24.90;17.00;;;;;;;13.15;97.85;100868.98;88518;273;137143;-73
2023/09/30 00:47:41;;;;;;;17.90;15.70;;;;;;;13.13;98.06;100867.23;88635;273;25115;-73
2023/09/30 00:49:46;;;;;;;24.50;17.20;;;;;;;13.14;98.25;100865.38;88484;272;138193;-73
2023/09/30 00:51:49;;;;;;;17.90;15.90;;;;;;;13.15;98.24;100865.73;88964;273;24014;-73
2023/09/30 00:53:56;;;;;;;21.40;17.90;;;;;;;13.17;98.36;100867.27;88649;280;137800;-69
2023/09/30 00:56:00;;;;;;;23.00;18.30;;;;;;;13.20;98.32;100864.08;88747;275;22541;-73
2023/09/30 00:58:02;;;;;;;21.80;17.00;;;;;;;13.22;98.09;100868.70;88575;280;136875;-75
2023/09/30 01:00:04;;;;;;;24.40;18.10;;;;;;;13.23;98.01;100863.85;88352;273;137653;-73
2023/09/30 01:02:07;;;;;;;20.60;18.20;;;;;;;13.22;97.88;100867.84;88680;273;22617;-74
2023/09/30 01:04:10;;;;;;;24.20;19.60;;;;;;;13.21;97.86;100866.60;88546;273;138875;-73
2023/09/30 01:06:13;;;;;;;23.60;18.70;;;;;;;13.23;97.94;100866.32;88615;279;22527;-72
2023/09/30 01:08:19;;;;;;;27.90;20.20;;;;;;;13.27;97.72;100862.58;88508;280;136834;-71
2023/09/30 01:10:21;;;;;;;25.80;20.40;;;;;;;13.32;97.48;100866.61;88561;278;22534;-72
2023/09/30 01:12:23;;;;;;;25.40;20.60;;;;;;;13.37;96.98;100863.30;88462;281;136503;-72
2023/09/30 01:14:31;;;;;;;21.10;18.60;;;;;;;13.42;96.60;100861.98;88450;278;23663;-70
2023/09/30 01:16:32;;;;;;;20.60;18.50;;;;;;;13.46;96.08;100855.41;88546;273;138025;-68
2023/09/30 01:18:37;;;;;;;25.00;18.60;;;;;;;13.48;95.91;100855.23;88696;280;25077;-69
2023/09/30 01:20:40;;;;;;;20.40;17.50;;;;;;;13.47;95.95;100857.52;88419;275;137475;-70
2023/09/30 01:22:44;;;;;;;20.50;17.00;;;;;;;13.44;95.92;100856.89;88630;273;22593;-71
2023/09/30 01:24:47;;;;;;;24.20;17.50;;;;;;;13.43;96.09;100854.88;88500;280;137352;-70
2023/09/30 01:26:49;;;;;;;21.90;18.80;;;;;;;13.45;95.99;100855.74;91020;281;22615;-71
2023/09/30 01:28:51;;;;;;;21.40;18.50;;;;;;;13.49;95.61;100854.58;88390;274;137372;-71
2023/09/30 01:30:52;;;;;;;25.10;18.50;;;;;;;13.53;95.33;100852.34;88555;280;22541;-73
2023/09/30 01:32:55;;;;;;;21.60;18.50;;;;;;;13.59;95.01;100853.20;88499;273;137273;-71
2023/09/30 01:34:57;;;;;;;21.60;18.20;;;;;;;13.65;94.45;100850.56;88665;277;22538;-75
2023/09/30 01:36:59;;;;;;;20.60;18.20;;;;;;;13.68;94.16;100848.86;88734;273;137043;-72
2023/09/30 01:39:02;;;;;;;23.80;19.80;;;;;;;13.71;94.00;100848.55;88896;273;25083;-72
2023/09/30 01:41:04;;;;;;;23.00;18.70;;;;;;;13.61;93.93;100839.00;88491;276;138105;-73
2023/09/30 01:43:07;;;;;;;22.30;17.70;;;;;;;13.61;93.99;100851.33;88695;280;22543;-73
2023/09/30 01:45:10;;;;;;;22.70;18.80;;;;;;;13.54;93.94;100851.36;88518;278;137891;-72
2023/09/30 01:47:12;;;;;;;20.80;18.40;;;;;;;13.46;94.31;100850.80;88550;282;25364;-74
2023/09/30 01:49:14;;;;;;;23.60;19.30;;;;;;;13.38;94.75;100847.45;88534;274;137766;-73
2023/09/30 01:51:15;;;;;;;22.10;17.60;;;;;;;13.34;95.22;100846.48;88556;280;22528;-74
2023/09/30 01:53:17;;;;;;;20.00;17.40;;;;;;;13.30;95.47;100846.71;88372;273;137342;-72
2023/09/30 01:55:19;;;;;;;21.10;18.90;;;;;;;13.26;95.76;100847.31;88553;280;24085;-74
2023/09/30 01:57:23;;;;;;;22.90;18.20;;;;;;;13.21;95.97;100849.17;88310;273;138246;-72
2023/09/30 01:59:25;;;;;;;26.10;18.70;;;;;;;13.17;96.45;100853.22;88499;281;25885;-74
2023/09/30 02:01:26;;;;;;;23.10;19.10;;;;;;;13.12;96.70;100851.48;88469;280;138190;-69
2023/09/30 02:03:29;;;;;;;22.80;18.30;;;;;;;13.07;96.91;100851.77;88520;282;22540;-70
2023/09/30 02:05:31;;;;;;;22.20;18.50;;;;;;;13.02;97.23;100853.78;88605;281;137312;-70
2023/09/30 02:07:33;;;;;;;27.80;19.40;;;;;;;12.99;97.66;100849.18;88549;280;22539;-67
2023/09/30 02:09:34;;;;;;;20.60;18.20;;;;;;;12.96;97.83;100847.06;88459;273;137307;-69
2023/09/30 02:11:37;;;;;;;20.30;18.20;;;;;;;12.93;98.26;100847.77;88456;277;22596;-67
2023/09/30 02:13:41;;;;;;;21.60;18.80;;;;;;;12.90;98.39;100851.15;88495;281;137358;-66
2023/09/30 02:15:43;;;;;;;20.40;18.20;;;;;;;12.85;98.58;100844.94;88622;278;22779;-70
2023/09/30 02:17:48;;;;;;;25.20;19.10;;;;;;;12.83;99.03;100843.81;88496;275;137931;-74
2023/09/30 02:19:51;;;;;;;22.20;17.70;;;;;;;12.80;99.28;100846.19;88671;282;24060;-65
2023/09/30 02:21:52;;;;;;;20.20;17.90;;;;;;;12.77;99.50;100842.27;88649;278;136931;-64
2023/09/30 02:23:54;;;;;;;22.10;18.70;;;;;;;12.74;99.74;100841.54;88564;278;25293;-66
2023/09/30 02:25:57;;;;;;;20.20;18.00;;;;;;;12.65;99.83;100830.20;88472;281;136983;-67
2023/09/30 02:28:00;;;;;;;24.00;18.20;;;;;;;12.67;100.00;100842.23;88746;276;25240;-68
2023/09/30 02:30:02;;;;;;;25.60;18.90;;;;;;;12.63;100.00;100839.08;88403;276;137519;-72
2023/09/30 02:32:04;;;;;;;19.80;17.20;;;;;;;12.61;100.00;100837.45;88487;280;137758;-68
2023/09/30 02:34:05;;;;;;;23.40;19.40;;;;;;;12.58;100.00;100832.77;88635;273;22487;-68
2023/09/30 02:36:12;;;;;;;20.80;17.40;;;;;;;12.57;100.00;100833.80;88572;273;137566;-67
2023/09/30 02:38:16;;;;;;;21.10;18.00;;;;;;;12.58;100.00;100833.84;88669;273;24062;-67
2023/09/30 02:40:19;;;;;;;22.70;17.00;;;;;;;12.61;100.00;100834.98;88580;273;137693;-68
2023/09/30 02:42:23;;;;;;;21.50;18.60;;;;;;;12.60;100.00;100829.37;88661;282;25366;-68
2023/09/30 02:44:25;;;;;;;23.00;18.40;;;;;;;12.58;100.00;100831.74;88503;273;137419;-67
2023/09/30 02:46:28;;;;;;;26.30;20.00;;;;;;;12.58;100.00;100830.47;88642;273;22626;-69
2023/09/30 02:48:30;;;;;;;23.50;18.50;;;;;;;12.56;100.00;100828.38;88634;280;137495;-68
2023/09/30 02:50:32;;;;;;;26.30;19.00;;;;;;;12.57;100.00;100831.15;88656;282;25137;-72
2023/09/30 02:52:36;;;;;;;20.70;18.50;;;;;;;12.50;100.00;100825.40;88599;277;137511;-72
2023/09/30 02:54:39;;;;;;;21.20;18.70;;;;;;;12.55;100.00;100836.11;88596;273;22601;-71
2023/09/30 02:56:42;;;;;;;24.60;18.90;;;;;;;12.55;100.00;100834.10;88586;282;137579;-69
2023/09/30 02:58:45;;;;;;;27.70;19.60;;;;;;;12.52;100.00;100829.45;88522;273;22810;-72
2023/09/30 03:00:49;;;;;;;21.80;19.20;;;;;;;12.50;100.00;100826.43;88500;273;137230;-71
2023/09/30 03:02:53;;;;;;;23.00;20.60;;;;;;;12.51;100.00;100822.45;88706;277;25114;-70
2023/09/30 03:04:57;;;;;;;29.30;20.40;;;;;;;12.55;100.00;100821.55;88533;282;137088;-69
2023/09/30 03:07:00;;;;;;;22.50;19.50;;;;;;;12.59;100.00;100821.66;88492;280;24049;-68
2023/09/30 03:09:04;;;;;;;24.70;19.10;;;;;;;12.61;100.00;100825.98;88410;281;137220;-70
2023/09/30 03:11:05;;;;;;;20.00;17.90;;;;;;;12.63;100.00;100825.25;88650;280;25099;-71
2023/09/30 03:13:10;;;;;;;23.20;19.00;;;;;;;12.66;100.00;100822.86;88507;273;137414;-71
2023/09/30 03:15:11;;;;;;;26.40;19.20;;;;;;;12.64;100.00;100823.42;88532;280;23704;-69
2023/09/30 03:17:13;;;;;;;22.30;19.80;;;;;;;12.63;100.00;100818.80;88467;273;138986;-68
2023/09/30 03:19:16;;;;;;;22.00;17.40;;;;;;;12.62;100.00;100819.89;88628;273;25208;-74
2023/09/30 03:21:18;;;;;;;24.20;18.60;;;;;;;12.58;100.00;100819.73;88621;273;137331;-67
2023/09/30 03:23:20;;;;;;;20.50;18.30;;;;;;;12.55;100.00;100817.30;88646;280;22544;-66
2023/09/30 03:25:23;;;;;;;27.70;19.80;;;;;;;12.51;100.00;100813.77;88492;280;137513;-69
2023/09/30 03:27:25;;;;;;;28.80;19.20;;;;;;;12.45;100.00;100817.98;88675;276;22670;-69
2023/09/30 03:29:27;;;;;;;28.10;18.30;;;;;;;12.41;100.00;100819.21;88566;280;137455;-69
2023/09/30 03:31:30;;;;;;;23.10;18.20;;;;;;;12.38;100.00;100817.86;88589;272;23755;-67
2023/09/30 03:33:33;;;;;;;23.20;19.00;;;;;;;12.35;100.00;100820.55;88412;271;137443;-69
2023/09/30 03:35:36;;;;;;;22.80;18.90;;;;;;;12.29;100.00;100816.20;89347;281;22550;-71
2023/09/30 03:37:38;;;;;;;24.50;18.60;;;;;;;12.24;100.00;100815.54;88404;276;137634;-68
2023/09/30 03:39:40;;;;;;;24.30;19.50;;;;;;;12.21;100.00;100811.71;88630;278;24162;-65
2023/09/30 03:41:43;;;;;;;22.40;19.50;;;;;;;12.16;100.00;100811.73;88544;273;138421;-70
2023/09/30 03:43:45;;;;;;;22.60;20.00;;;;;;;12.12;100.00;100811.64;88740;277;22531;-68
2023/09/30 03:45:47;;;;;;;24.20;21.00;;;;;;;12.08;100.00;100813.73;88554;280;137635;-68
2023/09/30 03:47:49;;;;;;;28.10;21.10;;;;;;;12.06;100.00;100812.96;88714;273;22534;-68
2023/09/30 03:49:54;;;;;;;21.50;19.20;;;;;;;12.06;100.00;100810.42;88587;277;137473;-71
2023/09/30 03:51:55;;;;;;;28.20;21.80;;;;;;;12.10;100.00;100805.95;88818;280;25160;-71
2023/09/30 03:53:57;;;;;;;24.70;19.90;;;;;;;12.14;100.00;100805.61;88466;279;138844;-70
2023/09/30 03:55:59;;;;;;;26.60;20.60;;;;;;;12.17;100.00;100803.93;88589;273;22545;-67
2023/09/30 03:58:03;;;;;;;25.00;21.00;;;;;;;12.21;100.00;100801.50;88599;276;137440;-70
2023/09/30 04:00:06;;;;;;;24.90;20.20;;;;;;;12.26;100.00;100805.84;88458;272;137654;-73
2023/09/30 04:02:14;;;;;;;21.20;18.70;;;;;;;12.31;100.00;100809.60;88357;272;22589;-71
2023/09/30 04:04:16;;;;;;;21.10;18.20;;;;;;;12.34;100.00;100810.79;88353;277;139253;-70
2023/09/30 04:06:18;;;;;;;22.40;20.00;;;;;;;12.37;100.00;100809.34;88582;277;22517;-69
2023/09/30 04:08:22;;;;;;;22.70;20.30;;;;;;;12.38;100.00;100805.00;88558;277;141273;-65
2023/09/30 04:10:25;;;;;;;26.20;19.30;;;;;;;12.37;100.00;100810.28;88591;273;23964;-68
2023/09/30 04:12:27;;;;;;;21.30;19.00;;;;;;;12.38;100.00;100812.23;88526;281;137561;-67
2023/09/30 04:16:44;;;;;;;24.80;19.80;;;;;;;12.45;100.00;100814.27;86781;305;603510;-69
2023/09/30 04:18:46;;;;;;;23.50;21.00;;;;;;;12.51;100.00;100814.05;87802;287;24186;-66
2023/09/30 04:20:51;;;;;;;26.70;21.90;;;;;;;12.58;100.00;100810.55;87932;282;137312;-65
2023/09/30 04:22:57;;;;;;;27.40;20.90;;;;;;;12.64;100.00;100795.92;88356;282;24028;-68
2023/09/30 04:24:59;;;;;;;22.00;19.60;;;;;;;12.94;100.00;100806.95;88108;286;138849;-71
2023/09/30 04:27:04;;;;;;;24.20;20.30;;;;;;;13.22;100.00;100809.73;88216;281;22552;-69
2023/09/30 04:29:06;;;;;;;;;;;;;;;13.53;100.00;100808.26;88060;281;138366;-67
2023/09/30 04:31:08;;;;;;;24.90;19.90;;;;;;;13.84;100.00;100807.73;87539;283;676025;-71
2023/09/30 04:33:13;;;;;;;20.70;18.40;;;;;;;14.19;99.41;100806.81;88217;280;138172;-68
2023/09/30 04:35:15;;;;;;;30.60;21.00;;;;;;;14.51;96.94;100805.23;88197;280;22533;-71
2023/09/30 04:37:17;;;;;;;21.40;18.50;;;;;;;14.82;94.61;100807.08;88036;280;136326;-71
2023/09/30 04:39:19;;;;;;;26.70;20.30;;;;;;;15.09;93.07;100802.21;88303;281;23751;-71
2023/09/30 04:41:21;;;;;;;22.40;19.90;;;;;;;15.42;90.89;100805.50;88083;288;137594;-68
2023/09/30 04:43:23;;;;;;;24.90;20.60;;;;;;;15.77;88.09;100803.79;88107;284;22587;-68
2023/09/30 04:45:26;;;;;;;24.20;19.60;;;;;;;16.09;85.69;100805.80;88065;280;136291;-68
2023/09/30 04:47:28;;;;;;;25.10;20.70;;;;;;;16.38;83.79;100802.73;88176;280;22552;-71
2023/09/30 04:49:30;;;;;;;31.10;20.10;;;;;;;16.69;81.94;100804.45;88034;280;136417;-69
2023/09/30 04:51:33;;;;;;;22.40;19.70;;;;;;;17.02;79.97;100799.46;88144;288;25089;-69
2023/09/30 04:53:35;;;;;;;23.60;20.40;;;;;;;17.32;78.08;100797.68;88025;280;138554;-69
2023/09/30 04:55:37;;;;;;;24.10;20.40;;;;;;;17.61;75.92;100800.63;88219;287;22540;-67
2023/09/30 04:57:39;;;;;;;24.60;19.00;;;;;;;17.88;74.49;100799.71;87985;288;136410;-70
2023/09/30 04:59:42;;;;;;;22.30;19.80;;;;;;;18.16;72.77;100796.77;88158;285;22568;-75
2023/09/30 05:01:44;;;;;;;22.80;20.00;;;;;;;18.41;71.29;100794.98;88006;284;137256;-76
2023/09/30 05:03:49;;;;;;;24.20;21.60;;;;;;;18.67;68.50;100796.20;88361;284;25741;-69
2023/09/30 05:05:55;;;;;;;28.50;22.50;;;;;;;18.81;67.05;100798.69;88047;284;136360;-70
2023/09/30 05:07:57;;;;;;;27.40;22.00;;;;;;;18.90;67.77;100796.95;88065;281;24843;-69
2023/09/30 05:09:59;;;;;;;28.20;21.80;;;;;;;19.15;67.25;100797.67;88080;280;136912;-71
2023/09/30 05:12:04;;;;;;;24.70;22.10;;;;;;;19.53;66.64;100796.32;88049;278;136675;-72
2023/09/30 05:14:06;;;;;;;25.50;21.10;;;;;;;19.95;64.42;100795.02;88197;284;26298;-71
2023/09/30 05:16:08;;;;;;;23.30;20.90;;;;;;;20.35;62.76;100792.89;88118;279;136973;-69
2023/09/30 05:18:11;;;;;;;23.30;20.10;;;;;;;20.69;61.65;100794.70;88113;281;24914;-72
2023/09/30 05:20:14;;;;;;;24.40;21.80;;;;;;;20.99;60.54;100795.80;88144;284;136480;-71
2023/09/30 05:22:23;;;;;;;28.20;21.70;;;;;;;21.30;60.02;100793.69;88189;278;22548;-71
2023/09/30 05:24:25;;;;;;;27.30;20.40;;;;;;;21.63;58.49;100791.46;88173;279;136734;-66
2023/09/30 05:26:27;;;;;;;23.60;20.30;;;;;;;21.94;57.58;100790.23;88191;279;22609;-65
2023/09/30 05:28:28;;;;;;;22.30;19.90;;;;;;;22.22;55.94;100787.56;87935;281;137214;-72
2023/09/30 05:30:31;;;;;;;27.40;20.40;;;;;;;22.48;55.10;100788.06;88124;284;25219;-71
2023/09/30 05:32:34;;;;;;;27.60;20.40;;;;;;;22.61;53.48;100784.06;88108;279;136766;-71
2023/09/30 05:34:39;;;;;;;25.80;23.00;;;;;;;22.62;53.34;100784.67;88312;279;22580;-72
2023/09/30 05:36:41;;;;;;;31.00;22.70;;;;;;;22.61;53.36;100788.36;88020;283;137572;-74
2023/09/30 05:38:43;;;;;;;29.60;22.90;;;;;;;22.66;53.25;100789.37;88046;284;25090;-74
2023/09/30 05:40:44;;;;;;;37.00;23.70;;;;;;;22.67;52.85;100787.54;87874;284;136275;-72
2023/09/30 05:42:46;;;;;;;31.80;23.80;;;;;;;22.63;53.09;100778.30;88037;283;25165;-71
2023/09/30 05:44:48;;;;;;;29.00;22.50;;;;;;;22.85;52.70;100786.27;88093;279;136590;-73
2023/09/30 05:46:50;;;;;;;32.30;22.80;;;;;;;23.10;51.95;100785.95;88104;279;25213;-70
2023/09/30 05:48:53;;;;;;;29.50;22.70;;;;;;;23.42;52.03;100785.17;88016;286;136333;-74
2023/09/30 05:50:57;;;;;;;28.70;22.90;;;;;;;23.76;51.29;100781.71;87999;279;25173;-73
2023/09/30 05:53:00;;;;;;;24.20;21.60;;;;;;;24.02;49.36;100781.56;88041;279;137495;-72
2023/09/30 05:55:03;;;;;;;32.90;23.00;;;;;;;24.16;48.92;100782.59;88113;278;24805;-71
2023/09/30 05:57:04;;;;;;;26.90;22.50;;;;;;;24.32;48.08;100778.74;88136;278;137985;-71
2023/09/30 05:59:07;;;;;;;28.80;23.00;;;;;;;24.45;47.62;100780.19;88117;279;22532;-71
2023/09/30 06:01:12;;;;;;;31.40;23.80;;;;;;;24.56;47.40;100782.95;88021;279;136308;-73
2023/09/30 06:03:14;;;;;;;33.60;22.50;;;;;;;24.63;47.19;100778.55;88155;279;22621;-71
2023/09/30 06:05:16;;;;;;;31.20;23.00;;;;;;;24.72;46.53;100782.48;88013;279;136450;-73
2023/09/30 06:07:19;;;;;;;30.20;22.60;;;;;;;24.83;46.43;100784.77;88038;283;22536;-71
2023/09/30 06:09:25;;;;;;;29.20;22.80;;;;;;;24.97;46.35;100781.17;88082;282;136381;-69
2023/09/30 06:11:29;;;;;;;29.90;22.30;;;;;;;25.16;45.82;100782.50;88272;286;22546;-73
2023/09/30 06:13:33;;;;;;;28.70;23.30;;;;;;;25.35;45.28;100780.82;88084;283;136198;-72
2023/09/30 06:15:40;;;;;;;26.60;21.90;;;;;;;25.48;45.05;100776.41;88303;280;25086;-71
2023/09/30 06:17:42;;;;;;;29.10;20.10;;;;;;;25.63;44.84;100771.08;88035;282;136275;-72
2023/09/30 06:19:44;;;;;;;24.50;20.70;;;;;;;25.71;44.33;100771.48;88271;279;22537;-72
2023/09/30 06:21:47;;;;;;;26.50;19.90;;;;;;;25.59;44.43;100773.21;87943;279;137709;-74
2023/09/30 06:23:51;;;;;;;25.00;18.60;;;;;;;25.29;45.20;100775.09;88053;279;22621;-74
2023/09/30 06:25:53;;;;;;;24.70;17.60;;;;;;;24.90;45.66;100778.55;88116;279;135992;-74
2023/09/30 06:27:56;;;;;;;22.10;17.20;;;;;;;24.40;46.53;100776.58;88077;279;25217;-74
2023/09/30 06:29:58;;;;;;;22.10;17.60;;;;;;;23.87;47.61;100776.76;88697;282;136790;-74
2023/09/30 06:31:59;;;;;;;17.90;15.50;;;;;;;23.37;49.08;100779.10;88102;279;24600;-70
2023/09/30 06:34:01;;;;;;;22.10;16.60;;;;;;;22.94;50.27;100779.61;88170;279;136512;-74
2023/09/30 06:36:08;;;;;;;17.00;15.10;;;;;;;22.58;51.30;100778.71;88055;279;136599;-70
2023/09/30 06:38:10;;;;;;;17.90;14.80;;;;;;;22.28;52.11;100775.69;88300;285;25105;-71
2023/09/30 06:40:12;;;;;;;17.70;15.80;;;;;;;22.06;52.85;100777.27;88144;286;140026;-70
2023/09/30 06:42:15;;;;;;;21.10;17.30;;;;;;;21.89;53.40;100780.98;88267;286;26411;-74
2023/09/30 06:44:17;;;;;;;19.00;16.10;;;;;;;21.73;53.84;100781.77;88203;286;136295;-72
2023/09/30 06:46:19;;;;;;;18.50;16.50;;;;;;;21.61;54.92;100779.27;88135;287;22638;-71
2023/09/30 06:48:21;;;;;;;18.40;16.30;;;;;;;21.53;55.11;100779.77;88074;279;136563;-71
2023/09/30 06:50:23;;;;;;;18.20;16.20;;;;;;;21.45;54.77;100778.89;88191;286;25141;-73
2023/09/30 06:52:27;;;;;;;18.40;16.10;;;;;;;21.34;55.22;100777.63;88180;283;136301;-73
2023/09/30 06:54:31;;;;;;;20.40;14.90;;;;;;;21.27;55.44;100780.61;88197;280;25057;-73
2023/09/30 06:56:33;;;;;;;25.70;15.50;;;;;;;21.19;55.40;100772.47;88067;287;137883;-71
2023/09/30 06:58:35;;;;;;;24.40;16.00;;;;;;;21.24;56.11;100783.17;88165;287;23343;-72
2023/09/30 07:00:38;;;;;;;20.00;16.00;;;;;;;21.24;55.64;100779.33;87991;279;136347;-73
2023/09/30 07:02:40;;;;;;;18.40;14.20;;;;;;;21.26;55.71;100779.30;88172;283;25383;-71
2023/09/30 07:04:43;;;;;;;17.30;14.00;;;;;;;21.28;55.25;100778.90;88131;279;136372;-71
2023/09/30 07:06:45;;;;;;;18.80;14.20;;;;;;;21.30;54.97;100781.58;88133;280;25108;-74
2023/09/30 07:08:47;;;;;;;20.60;13.10;;;;;;;21.32;54.85;100777.22;87898;285;136531;-73
2023/09/30 07:10:49;;;;;;;21.20;13.60;;;;;;;21.35;55.07;100773.19;88269;286;22542;-76
2023/09/30 07:12:51;;;;;;;18.80;13.20;;;;;;;21.39;55.40;100772.33;88133;279;137750;-72
2023/09/30 07:14:53;;;;;;;20.40;13.10;;;;;;;21.34;54.82;100762.63;88148;279;24034;-72
2023/09/30 07:16:55;;;;;;;16.90;12.80;;;;;;;21.46;54.42;100773.98;88023;279;136455;-72
2023/09/30 07:18:57;;;;;;;15.20;12.30;;;;;;;21.47;54.17;100774.20;88150;279;25082;-72
2023/09/30 07:21:01;;;;;;;13.80;12.40;;;;;;;21.49;54.11;100773.48;88269;283;136498;-73
2023/09/30 07:23:03;;;;;;;22.00;12.50;;;;;;;21.55;54.34;100773.29;88232;287;24024;-77
2023/09/30 07:25:19;;;;;;;14.60;12.00;;;;;;;21.64;54.46;100771.71;88045;279;137542;-77
2023/09/30 07:27:21;;;;;;;16.70;11.90;;;;;;;21.72;54.69;100775.56;88177;278;22540;-76
2023/09/30 07:29:29;;;;;;;17.90;11.80;;;;;;;21.82;54.63;100777.27;88293;278;136593;-75
2023/09/30 07:31:35;;;;;;;13.30;11.80;;;;;;;21.89;54.76;100777.20;88202;278;25197;-73
2023/09/30 07:33:37;;;;;;;12.10;10.20;;;;;;;21.98;54.69;100768.08;87959;283;136110;-73
2023/09/30 07:35:40;;;;;;;17.50;11.40;;;;;;;22.07;54.56;100770.52;88080;279;22621;-72
2023/09/30 07:37:42;;;;;;;14.80;10.00;;;;;;;22.14;53.83;100767.01;87870;280;136651;-74
2023/09/30 07:39:44;;;;;;;17.80;12.70;;;;;;;22.23;53.40;100769.75;88399;287;22548;-74
2023/09/30 07:41:46;;;;;;;14.70;10.50;;;;;;;22.33;52.77;100771.63;88056;286;136771;-77
2023/09/30 07:43:48;;;;;;;14.00;10.60;;;;;;;22.44;52.70;100769.69;88220;279;25216;-76
2023/09/30 07:45:49;;;;;;;11.00;9.10;;;;;;;22.52;52.28;100768.72;88078;280;136733;-73
2023/09/30 07:47:52;;;;;;;14.30;10.90;;;;;;;22.58;51.94;100766.10;88326;280;22540;-75
2023/09/30 07:49:54;;;;;;;12.70;9.10;;;;;;;22.65;51.47;100766.27;88175;279;137615;-72
2023/09/30 07:51:56;;;;;;;15.30;10.00;;;;;;;22.74;51.28;100761.79;88265;278;23721;-72
2023/09/30 07:53:58;;;;;;;12.30;9.20;;;;;;;22.84;50.76;100763.27;87992;283;136449;-73
2023/09/30 07:56:19;;;;;;;12.50;9.00;;;;;;;22.92;51.00;100758.84;87980;279;137875;-74
2023/09/30 07:58:21;;;;;;;9.60;8.10;;;;;;;22.94;50.79;100755.85;88132;282;24058;-73
2023/09/30 08:00:23;;;;;;;16.90;9.70;;;;;;;22.97;50.68;100753.33;87986;284;135634;-75
2023/09/30 08:02:32;;;;;;;9.50;8.10;;;;;;;23.03;50.32;100752.88;88224;279;22535;-75
2023/09/30 08:04:34;;;;;;;11.50;8.20;;;;;;;23.12;49.37;100751.66;88329;282;136234;-72
2023/09/30 08:06:36;;;;;;;17.10;8.80;;;;;;;23.21;49.12;100753.23;88208;279;25113;-73
2023/09/30 08:08:38;;;;;;;13.90;8.50;;;;;;;23.27;48.94;100752.95;88076;279;138068;-76
2023/09/30 08:10:40;;;;;;;15.70;8.90;;;;;;;23.34;48.81;100747.06;88086;279;22575;-74
2023/09/30 08:12:48;;;;;;;16.60;8.30;;;;;;;23.44;48.18;100749.23;88101;279;136535;-70
2023/09/30 08:14:51;;;;;;;13.40;8.10;;;;;;;23.53;47.91;100747.92;88188;279;22546;-71
2023/09/30 08:16:53;;;;;;;18.30;7.70;;;;;;;23.55;47.75;100735.13;88014;286;136557;-74
2023/09/30 08:18:55;;;;;;;13.60;9.60;;;;;;;23.67;47.02;100746.19;88151;279;25245;-72
2023/09/30 08:20:57;;;;;;;11.90;7.70;;;;;;;23.71;46.30;100745.22;87954;284;137038;-74
2023/09/30 08:22:59;;;;;;;16.90;8.20;;;;;;;23.72;46.28;100747.66;88143;278;25172;-77
2023/09/30 08:25:01;;;;;;;13.30;8.20;;;;;;;23.71;46.43;100746.04;88037;283;136370;-74
2023/09/30 08:27:03;;;;;;;9.60;7.50;;;;;;;23.72;46.39;100745.77;88114;279;22636;-75
2023/09/30 08:29:06;;;;;;;13.20;7.50;;;;;;;23.79;46.21;100744.12;88021;278;137673;-76
2023/09/30 08:31:09;;;;;;;11.00;7.10;;;;;;;23.87;45.51;100747.98;88201;283;25146;-76
2023/09/30 08:33:10;;;;;;;8.10;7.20;;;;;;;23.94;44.56;100746.14;88412;286;136832;-72
2023/09/30 08:35:14;;;;;;;16.40;7.60;;;;;;;23.97;44.44;100746.52;88117;283;25160;-72
2023/09/30 08:37:16;;;;;;;8.90;7.30;;;;;;;24.00;44.33;100743.00;87976;287;136447;-73
2023/09/30 08:39:18;;;;;;;8.60;7.20;;;;;;;24.04;44.55;100744.05;89601;286;23715;-72
2023/09/30 08:41:30;;;;;;;12.20;7.80;;;;;;;24.09;44.63;100743.58;88023;279;136317;-72
2023/09/30 08:43:38;;;;;;;9.90;7.30;;;;;;;24.15;44.84;100739.45;88168;287;22541;-73
2023/09/30 08:45:44;;;;;;;7.30;5.70;;;;;;;24.22;44.29;100737.45;88179;279;137662;-73
2023/09/30 08:47:47;;;;;;;9.90;5.70;;;;;;;24.28;43.91;100735.66;88327;278;25219;-72
2023/09/30 08:49:54;;;;;;;7.20;4.80;;;;;;;24.36;43.09;100732.89;88100;286;136225;-73
2023/09/30 08:51:58;;;;;;;8.50;5.80;;;;;;;24.43;43.16;100728.21;88106;282;22548;-72
2023/09/30 08:54:03;;;;;;;8.80;5.50;;;;;;;24.49;42.79;100725.48;88139;279;136169;-73
2023/09/30 08:56:10;;;;;;;12.20;5.10;;;;;;;24.54;42.48;100728.41;88051;279;138040;-73
2023/09/30 08:58:13;;;;;;;8.60;5.20;;;;;;;24.54;41.20;100724.05;88170;283;22945;-74
2023/09/30 09:00:16;;;;;;;6.60;5.40;;;;;;;24.48;41.05;100724.73;88044;283;136256;-73
2023/09/30 09:02:18;;;;;;;6.80;5.60;;;;;;;24.43;41.18;100721.73;88059;283;22534;-74
2023/09/30 09:04:20;;;;;;;7.60;6.10;;;;;;;24.38;41.63;100722.38;88016;283;136443;-72
2023/09/30 09:06:24;;;;;;;8.50;5.50;;;;;;;24.36;42.02;100719.33;88266;279;24830;-73
2023/09/30 09:08:26;;;;;;;10.30;5.20;;;;;;;24.36;41.53;100720.57;88070;282;136358;-74
2023/09/30 09:10:29;;;;;;;12.50;5.60;;;;;;;24.38;41.98;100720.20;88155;279;23006;-74
2023/09/30 09:12:30;;;;;;;7.60;4.80;;;;;;;24.37;41.65;100707.29;87882;279;136149;-73
2023/09/30 09:14:41;;;;;;;6.40;4.80;;;;;;;24.51;41.15;100715.74;87996;280;22557;-72
2023/09/30 09:16:53;;;;;;;11.90;4.70;;;;;;;24.58;41.21;100711.58;88108;282;136155;-74
2023/09/30 09:18:56;;;;;;;8.70;4.80;;;;;;;24.67;40.51;100712.92;88227;279;25090;-73
2023/09/30 09:21:10;;;;;;;4.80;4.40;;;;;;;24.74;39.26;100714.23;88214;279;136431;-75
2023/09/30 09:23:15;;;;;;;4.10;3.50;;;;;;;24.76;37.78;100710.46;88227;286;22540;-73
2023/09/30 09:25:16;;;;;;;5.00;3.60;;;;;;;24.76;37.34;100707.09;88301;279;136337;-73